createdAt,value
2022-10-17T00:01:29.855Z,15.65
2022-10-17T00:03:56.426Z,15.07
2022-10-17T00:06:23.006Z,14.30
2022-10-17T00:08:49.613Z,18.08
2022-10-17T00:11:18.993Z,18.10
2022-10-17T00:13:47.447Z,13.98
2022-10-17T00:16:15.032Z,15.65
2022-10-17T00:18:41.644Z,15.30
2022-10-17T00:21:16.756Z,16.40
2022-10-17T00:23:43.450Z,17.58
2022-10-17T00:26:10.184Z,18.20
2022-10-17T00:28:36.835Z,16.73
2022-10-17T00:31:06.555Z,18.02
2022-10-17T00:33:35.162Z,21.02
2022-10-17T00:36:09.655Z,17.20
2022-10-17T00:38:37.292Z,16.60
2022-10-17T00:41:04.247Z,16.35
2022-10-17T00:44:14.640Z,18.48
2022-10-17T00:46:41.168Z,13.93
2022-10-17T00:49:10.335Z,14.57
2022-10-17T00:51:45.645Z,15.88
2022-10-17T00:54:14.860Z,15.10
2022-10-17T00:56:42.011Z,16.88
2022-10-17T00:59:11.247Z,15.27
2022-10-17T01:01:39.068Z,17.48
2022-10-17T01:04:05.750Z,17.33
2022-10-17T01:06:32.296Z,16.23
2022-10-17T01:08:58.993Z,16.00
2022-10-17T01:11:39.883Z,14.77
2022-10-17T01:14:13.950Z,15.10
2022-10-17T01:16:54.826Z,16.92
2022-10-17T01:19:42.601Z,17.40
2022-10-17T01:22:18.232Z,20.70
2022-10-17T01:24:53.790Z,14.77
2022-10-17T01:28:12.879Z,18.67
2022-10-17T01:30:55.479Z,13.98
2022-10-17T01:34:02.058Z,14.40
2022-10-17T01:37:03.031Z,15.60
2022-10-17T01:39:48.050Z,13.43
2022-10-17T01:42:27.276Z,13.60
2022-10-17T01:45:04.225Z,15.55
2022-10-17T01:47:33.729Z,13.68
2022-10-17T01:50:06.535Z,15.13
2022-10-17T01:52:42.874Z,14.48
2022-10-17T01:55:15.067Z,12.30
2022-10-17T01:57:47.287Z,20.13
2022-10-17T02:00:22.000Z,14.23
2022-10-17T02:02:52.842Z,16.20
2022-10-17T02:05:24.896Z,14.60
2022-10-17T02:10:26.187Z,14.10
2022-10-17T02:13:02.251Z,15.02
2022-10-17T02:15:46.959Z,14.00
2022-10-17T02:18:24.848Z,13.73
2022-10-17T02:21:00.806Z,14.02
2022-10-17T02:23:33.763Z,14.57
2022-10-17T02:26:10.016Z,17.30
2022-10-17T02:28:47.615Z,14.43
2022-10-17T02:31:17.888Z,13.50
2022-10-17T02:33:51.070Z,12.45
2022-10-17T02:36:23.827Z,15.43
2022-10-17T02:38:54.277Z,14.75
2022-10-17T02:41:23.435Z,12.85
2022-10-17T02:43:51.707Z,14.77
2022-10-17T02:46:21.453Z,14.80
2022-10-17T02:49:20.310Z,13.20
2022-10-17T02:52:15.071Z,15.05
2022-10-17T02:54:52.192Z,13.68
2022-10-17T02:57:28.028Z,17.45
2022-10-17T02:59:57.579Z,14.43
2022-10-17T03:02:24.811Z,15.65
2022-10-17T03:04:51.395Z,12.00
2022-10-17T03:07:17.973Z,13.85
2022-10-17T03:09:44.619Z,13.32
2022-10-17T03:12:11.188Z,13.65
2022-10-17T03:14:37.704Z,13.75
2022-10-17T03:17:04.207Z,15.15
2022-10-17T03:19:30.764Z,17.60
2022-10-17T03:21:57.264Z,15.10
2022-10-17T03:24:23.835Z,16.33
2022-10-17T03:26:50.361Z,14.00
2022-10-17T03:29:16.850Z,15.27
2022-10-17T03:31:43.377Z,13.98
2022-10-17T03:34:09.874Z,15.40
2022-10-17T03:36:36.385Z,12.57
2022-10-17T03:39:03.238Z,14.20
2022-10-17T03:41:29.790Z,14.25
2022-10-17T03:43:56.336Z,14.73
2022-10-17T03:46:22.869Z,14.93
2022-10-17T03:48:49.437Z,13.77
2022-10-17T03:51:16.028Z,15.63
2022-10-17T03:53:42.538Z,16.13
2022-10-17T03:56:19.001Z,15.98
2022-10-17T03:58:45.587Z,16.27
2022-10-17T04:01:14.518Z,14.90
2022-10-17T04:03:41.874Z,15.65
2022-10-17T04:06:12.111Z,13.90
2022-10-17T04:08:39.135Z,13.60
2022-10-17T04:11:08.472Z,13.85
2022-10-17T04:13:35.670Z,15.13
2022-10-17T04:16:05.744Z,17.13
2022-10-17T04:18:32.745Z,13.13
2022-10-17T04:21:03.167Z,14.90
2022-10-17T04:23:30.294Z,15.63
2022-10-17T04:26:01.042Z,14.50
2022-10-17T04:28:28.082Z,12.27
2022-10-17T04:31:03.605Z,14.18
2022-10-17T04:33:31.220Z,17.50
2022-10-17T04:36:06.816Z,17.95
2022-10-17T04:38:34.045Z,21.63
2022-10-17T04:41:03.253Z,17.70
2022-10-17T04:43:34.365Z,20.48
2022-10-17T04:46:02.546Z,17.25
2022-10-17T04:48:30.070Z,13.77
2022-10-17T04:50:58.925Z,16.45
2022-10-17T04:53:26.962Z,17.40
2022-10-17T04:55:53.665Z,15.60
2022-10-17T04:58:20.618Z,7.07
2022-10-17T05:00:47.273Z,7.60
2022-10-17T05:03:14.119Z,7.32
2022-10-17T05:05:41.651Z,7.90
2022-10-17T05:08:10.086Z,9.52
2022-10-17T05:10:41.675Z,8.52
2022-10-17T05:13:09.083Z,7.60
2022-10-17T05:15:36.697Z,7.43
2022-10-17T05:18:04.345Z,6.25
2022-10-17T05:20:31.490Z,5.70
2022-10-17T05:23:01.876Z,4.82
2022-10-17T05:25:28.405Z,3.95
2022-10-17T05:27:54.919Z,4.20
2022-10-17T05:30:21.933Z,5.35
2022-10-17T05:32:48.487Z,4.50
2022-10-17T05:35:15.034Z,4.78
2022-10-17T05:37:41.599Z,4.18
2022-10-17T05:40:08.642Z,5.35
2022-10-17T05:42:35.178Z,5.20
2022-10-17T05:45:01.911Z,5.05
2022-10-17T05:47:28.860Z,5.65
2022-10-17T05:49:55.591Z,6.00
2022-10-17T05:52:22.176Z,6.28
2022-10-17T05:54:48.722Z,5.80
2022-10-17T05:57:15.240Z,6.93
2022-10-17T05:59:41.771Z,6.70
2022-10-17T06:02:10.007Z,5.53
2022-10-17T06:04:38.001Z,5.53
2022-10-17T06:07:05.067Z,4.47
2022-10-17T06:09:31.712Z,6.13
2022-10-17T06:11:58.260Z,6.53
2022-10-17T06:14:24.833Z,5.75
2022-10-17T06:16:51.344Z,5.10
2022-10-17T06:19:18.047Z,5.63
2022-10-17T06:21:44.590Z,5.65
2022-10-17T06:24:11.098Z,4.55
2022-10-17T06:26:37.639Z,6.03
2022-10-17T06:29:04.262Z,5.35
2022-10-17T06:31:30.986Z,5.38
2022-10-17T06:33:57.500Z,6.35
2022-10-17T06:36:24.209Z,7.30
2022-10-17T06:38:50.809Z,7.63
2022-10-17T06:41:19.275Z,7.82
2022-10-17T06:43:47.084Z,8.27
2022-10-17T06:46:15.431Z,8.02
2022-10-17T06:48:42.284Z,8.63
2022-10-17T06:51:12.113Z,8.73
2022-10-17T06:53:40.384Z,9.07
2022-10-17T06:56:08.751Z,8.85
2022-10-17T06:58:39.115Z,8.98
2022-10-17T07:01:10.756Z,10.25
2022-10-17T07:03:37.619Z,11.50
2022-10-17T07:06:04.710Z,11.38
2022-10-17T07:08:31.225Z,11.38
2022-10-17T07:10:58.313Z,11.18
2022-10-17T07:13:25.642Z,11.38
2022-10-17T07:15:52.620Z,11.27
2022-10-17T07:18:19.228Z,11.85
2022-10-17T07:20:53.855Z,12.10
2022-10-17T07:23:20.702Z,12.20
2022-10-17T07:25:47.380Z,12.23
2022-10-17T07:28:15.027Z,12.88
2022-10-17T07:30:41.772Z,13.63
2022-10-17T07:33:08.615Z,12.75
2022-10-17T07:35:35.136Z,12.80
2022-10-17T07:38:01.667Z,13.73
2022-10-17T07:40:28.178Z,13.43
2022-10-17T07:42:56.399Z,14.00
2022-10-17T07:45:23.897Z,13.30
2022-10-17T07:47:50.400Z,13.20
2022-10-17T07:50:17.080Z,12.18
2022-10-17T07:52:43.938Z,12.93
2022-10-17T07:55:10.489Z,12.30
2022-10-17T07:57:37.063Z,12.45
2022-10-17T08:00:04.080Z,13.68
2022-10-17T08:02:31.729Z,13.23
2022-10-17T08:04:58.547Z,13.27
2022-10-17T08:07:29.175Z,12.35
2022-10-17T08:09:56.336Z,11.93
2022-10-17T08:12:24.274Z,11.52
2022-10-17T08:14:50.861Z,11.95
2022-10-17T08:17:17.485Z,11.50
2022-10-17T08:19:44.014Z,11.63
2022-10-17T08:22:10.602Z,12.60
2022-10-17T08:24:37.172Z,11.75
2022-10-17T08:27:08.593Z,11.93
2022-10-17T08:29:35.190Z,11.27
2022-10-17T08:32:03.680Z,11.52
2022-10-17T08:34:31.058Z,11.63
2022-10-17T08:36:57.680Z,11.40
2022-10-17T08:39:24.258Z,11.50
2022-10-17T08:42:15.169Z,11.30
2022-10-17T08:45:00.220Z,11.13
2022-10-17T08:47:38.597Z,11.52
2022-10-17T08:50:18.258Z,11.20
2022-10-17T08:52:52.557Z,11.65
2022-10-17T08:55:29.880Z,11.50
2022-10-17T08:57:56.477Z,11.35
2022-10-17T09:00:23.546Z,11.82
2022-10-17T09:03:30.042Z,11.60
2022-10-17T09:06:05.103Z,10.75
2022-10-17T09:09:09.239Z,9.27
2022-10-17T09:12:07.372Z,8.88
2022-10-17T09:15:03.058Z,8.23
2022-10-17T09:17:35.237Z,5.95
2022-10-17T09:20:24.102Z,4.40
2022-10-17T09:23:11.693Z,3.63
2022-10-17T09:25:44.500Z,3.55
2022-10-17T09:28:20.981Z,3.10
2022-10-17T09:30:55.915Z,2.90
2022-10-17T09:33:52.954Z,3.13
2022-10-17T09:36:22.831Z,2.95
2022-10-17T09:38:58.320Z,2.83
2022-10-17T09:41:46.580Z,2.80
2022-10-17T09:44:32.596Z,2.75
2022-10-17T09:47:06.619Z,2.53
2022-10-17T09:49:39.531Z,2.45
2022-10-17T09:52:13.937Z,3.10
2022-10-17T09:54:49.680Z,2.53
2022-10-17T09:57:18.167Z,2.67
2022-10-17T10:00:01.752Z,2.40
2022-10-17T10:02:31.219Z,2.53
2022-10-17T10:05:19.995Z,2.30
2022-10-17T10:08:05.609Z,2.53
2022-10-17T10:10:33.188Z,2.50
2022-10-17T10:13:16.403Z,2.15
2022-10-17T10:15:45.638Z,2.20
2022-10-17T10:18:36.225Z,2.30
2022-10-17T10:21:16.098Z,2.20
2022-10-17T10:23:45.503Z,2.30
2022-10-17T10:26:22.800Z,2.60
2022-10-17T10:29:24.260Z,2.05
2022-10-17T10:31:51.993Z,2.20
2022-10-17T10:34:31.366Z,2.15
2022-10-17T10:37:00.570Z,2.58
2022-10-17T10:39:46.055Z,2.70
2022-10-17T10:42:25.251Z,2.47
2022-10-17T10:44:54.011Z,2.65
2022-10-17T10:47:31.880Z,2.42
2022-10-17T10:50:25.087Z,2.35
2022-10-17T10:53:15.008Z,2.58
2022-10-17T10:55:56.074Z,2.55
2022-10-17T10:58:35.958Z,2.65
2022-10-17T11:01:15.678Z,2.20
2022-10-17T11:04:01.732Z,2.60
2022-10-17T11:06:31.604Z,2.17
2022-10-17T11:09:12.368Z,2.25
2022-10-17T11:11:53.152Z,2.17
2022-10-17T11:14:32.046Z,2.08
2022-10-17T11:16:58.711Z,1.95
2022-10-17T11:19:37.207Z,2.20
2022-10-17T11:22:12.833Z,2.42
2022-10-17T11:25:04.090Z,2.15
2022-10-17T11:27:31.653Z,1.87
2022-10-17T11:29:58.916Z,2.33
2022-10-17T11:32:34.913Z,2.10
2022-10-17T11:35:14.981Z,2.08
2022-10-17T11:37:49.024Z,2.40
2022-10-17T11:40:24.392Z,2.20
2022-10-17T11:43:03.647Z,2.25
2022-10-17T11:45:35.318Z,2.50
2022-10-17T11:48:12.625Z,2.58
2022-10-17T11:53:39.326Z,2.22
2022-10-17T11:56:08.624Z,2.30
2022-10-17T11:58:57.612Z,2.67
2022-10-17T12:01:42.137Z,2.08
2022-10-17T12:04:49.968Z,2.42
2022-10-17T12:07:47.863Z,2.15
2022-10-17T12:10:46.960Z,2.00
2022-10-17T12:13:33.734Z,2.72
2022-10-17T12:16:18.851Z,2.33
2022-10-17T12:18:47.015Z,2.50
2022-10-17T12:21:14.153Z,2.80
2022-10-17T12:23:41.310Z,1.80
2022-10-17T12:26:10.368Z,2.30
2022-10-17T12:28:44.865Z,2.40
2022-10-17T12:31:29.686Z,2.45
2022-10-17T12:34:05.061Z,2.55
2022-10-17T12:36:31.543Z,2.05
2022-10-17T12:39:03.960Z,2.20
2022-10-17T12:41:39.562Z,2.30
2022-10-17T12:44:12.761Z,2.22
2022-10-17T12:46:58.608Z,2.67
2022-10-17T12:49:45.742Z,2.50
2022-10-17T12:52:21.873Z,2.10
2022-10-17T12:55:12.629Z,2.35
2022-10-17T12:58:05.593Z,2.08
2022-10-17T13:00:43.885Z,2.10
2022-10-17T13:03:33.463Z,2.42
2022-10-17T13:06:06.395Z,2.08
2022-10-17T13:08:47.377Z,2.45
2022-10-17T13:11:22.416Z,3.13
2022-10-17T13:13:52.254Z,2.20
2022-10-17T13:16:52.970Z,2.30
2022-10-17T13:19:23.572Z,2.08
2022-10-17T13:22:06.005Z,2.30
2022-10-17T13:24:38.670Z,2.20
2022-10-17T13:27:20.993Z,2.40
2022-10-17T13:29:47.725Z,2.10
2022-10-17T13:32:14.292Z,2.90
2022-10-17T13:34:40.993Z,2.90
2022-10-17T13:37:13.475Z,2.78
2022-10-17T13:39:55.365Z,2.53
2022-10-17T13:42:29.496Z,2.47
2022-10-17T13:44:58.307Z,2.50
2022-10-17T13:47:27.976Z,2.55
2022-10-17T13:49:55.755Z,2.35
2022-10-17T13:52:26.886Z,2.38
2022-10-17T13:54:54.675Z,2.45
2022-10-17T13:57:31.242Z,2.55
2022-10-17T14:00:01.858Z,2.55
2022-10-17T14:02:33.827Z,2.40
2022-10-17T14:05:23.013Z,2.55
2022-10-17T14:08:11.351Z,2.20
2022-10-17T14:10:41.213Z,2.35
2022-10-17T14:13:19.962Z,2.40
2022-10-17T14:15:47.019Z,2.33
2022-10-17T14:18:27.833Z,2.50
2022-10-17T14:21:34.057Z,2.60
2022-10-17T14:23:44.589Z,2.72
2022-10-17T14:26:23.895Z,2.53
2022-10-17T14:29:05.032Z,2.50
2022-10-17T14:31:36.985Z,2.40
2022-10-17T14:36:43.895Z,3.80
2022-10-17T14:39:20.778Z,3.03
2022-10-17T14:41:48.362Z,3.53
2022-10-17T14:44:25.373Z,2.78
2022-10-17T14:46:56.700Z,2.83
2022-10-17T14:49:35.819Z,3.35
2022-10-17T14:52:18.670Z,2.88
2022-10-17T14:54:48.457Z,2.72
2022-10-17T14:57:26.006Z,2.55
2022-10-17T14:59:55.742Z,2.70
2022-10-17T15:02:24.651Z,3.00
2022-10-17T15:04:51.414Z,2.45
2022-10-17T15:07:18.643Z,2.40
2022-10-17T15:09:48.260Z,2.45
2022-10-17T15:12:17.578Z,2.40
2022-10-17T15:14:44.438Z,2.42
2022-10-17T15:17:31.329Z,2.40
2022-10-17T15:19:58.441Z,2.65
2022-10-17T15:22:25.405Z,2.47
2022-10-17T15:24:52.134Z,2.47
2022-10-17T15:27:23.950Z,2.35
2022-10-17T15:32:18.501Z,2.55
2022-10-17T15:34:45.154Z,2.97
2022-10-17T15:37:22.166Z,2.45
2022-10-17T15:39:54.520Z,2.58
2022-10-17T15:42:26.235Z,2.35
2022-10-17T15:44:52.755Z,2.80
2022-10-17T15:47:28.424Z,3.10
2022-10-17T15:49:55.599Z,2.88
2022-10-17T15:52:22.663Z,3.25
2022-10-17T15:54:49.308Z,2.90
2022-10-17T15:57:21.699Z,2.67
2022-10-17T15:59:50.267Z,3.30
2022-10-17T16:02:18.678Z,3.05
2022-10-17T16:04:45.498Z,2.72
2022-10-17T16:07:12.002Z,2.40
2022-10-17T16:09:38.615Z,2.85
2022-10-17T16:12:07.216Z,2.65
2022-10-17T16:14:33.789Z,2.85
2022-10-17T16:17:00.638Z,2.67
2022-10-17T16:19:29.884Z,2.67
2022-10-17T16:21:59.630Z,2.88
2022-10-17T16:24:28.794Z,3.00
2022-10-17T16:26:55.322Z,2.75
2022-10-17T16:29:21.825Z,3.20
2022-10-17T16:31:48.377Z,3.17
2022-10-17T16:34:15.922Z,2.35
2022-10-17T16:36:42.739Z,2.55
2022-10-17T16:39:09.764Z,3.03
2022-10-17T16:41:38.822Z,3.20
2022-10-17T16:44:08.297Z,3.20
2022-10-17T16:46:37.220Z,2.70
2022-10-17T16:49:05.327Z,3.00
2022-10-17T16:51:33.745Z,2.70
2022-10-17T16:54:00.388Z,3.38
2022-10-17T16:56:32.751Z,3.38
2022-10-17T16:59:00.879Z,3.53
2022-10-17T17:01:29.362Z,3.92
2022-10-17T17:03:56.462Z,3.10
2022-10-17T17:06:28.521Z,2.78
2022-10-17T17:08:56.099Z,2.67
2022-10-17T17:11:26.228Z,2.88
2022-10-17T17:13:56.704Z,3.33
2022-10-17T17:16:24.778Z,3.25
2022-10-17T17:18:57.045Z,3.58
2022-10-17T17:21:24.198Z,4.15
2022-10-17T17:23:51.666Z,3.92
2022-10-17T17:26:22.685Z,3.83
2022-10-17T17:28:50.244Z,3.97
2022-10-17T17:31:27.722Z,3.97
2022-10-17T17:36:27.096Z,4.35
2022-10-17T17:38:58.996Z,4.60
2022-10-17T17:41:26.017Z,4.85
2022-10-17T17:43:53.191Z,4.45
2022-10-17T17:46:21.686Z,4.47
2022-10-17T17:48:49.817Z,4.85
2022-10-17T17:51:19.679Z,3.92
2022-10-17T17:53:47.274Z,4.70
2022-10-17T17:56:16.471Z,3.97
2022-10-17T17:58:45.767Z,3.78
2022-10-17T18:01:20.382Z,3.53
2022-10-17T18:03:52.042Z,4.35
2022-10-17T18:06:19.973Z,4.68
2022-10-17T18:08:56.048Z,4.10
2022-10-17T18:11:22.583Z,4.30
2022-10-17T18:13:56.747Z,3.53
2022-10-17T18:16:24.625Z,4.00
2022-10-17T18:18:51.229Z,4.93
2022-10-17T18:21:18.190Z,4.22
2022-10-17T18:23:46.164Z,4.15
2022-10-17T18:26:14.481Z,4.00
2022-10-17T18:28:42.747Z,4.18
2022-10-17T18:31:32.238Z,4.47
2022-10-17T18:34:02.741Z,5.45
2022-10-17T18:36:31.096Z,5.43
2022-10-17T18:38:59.452Z,4.35
2022-10-17T18:41:26.771Z,4.57
2022-10-17T18:43:54.922Z,4.72
2022-10-17T18:46:24.187Z,5.00
2022-10-17T18:48:51.158Z,4.75
2022-10-17T18:51:21.061Z,4.38
2022-10-17T18:53:49.984Z,5.82
2022-10-17T18:56:17.796Z,4.60
2022-10-17T18:58:44.465Z,4.70
2022-10-17T19:01:18.070Z,4.60
2022-10-17T19:03:47.012Z,4.65
2022-10-17T19:06:16.199Z,4.20
2022-10-17T19:08:43.792Z,4.15
2022-10-17T19:11:20.786Z,4.03
2022-10-17T19:13:48.253Z,3.92
2022-10-17T19:16:18.720Z,3.85
2022-10-17T19:18:50.611Z,3.65
2022-10-17T19:23:59.919Z,3.58
2022-10-17T19:26:29.599Z,3.67
2022-10-17T19:28:56.616Z,3.80
2022-10-17T19:31:27.102Z,3.70
2022-10-17T19:33:54.191Z,3.28
2022-10-17T19:36:22.598Z,3.50
2022-10-17T19:38:49.370Z,3.90
2022-10-17T19:41:16.601Z,3.47
2022-10-17T19:43:44.097Z,3.80
2022-10-17T19:46:16.283Z,3.90
2022-10-17T19:48:43.076Z,3.90
2022-10-17T19:51:13.236Z,3.65
2022-10-17T19:53:40.114Z,3.78
2022-10-17T19:56:07.448Z,3.70
2022-10-17T19:58:36.271Z,3.90
2022-10-17T20:01:05.748Z,3.70
2022-10-17T20:03:32.339Z,3.65
2022-10-17T20:05:58.882Z,4.22
2022-10-17T20:10:53.051Z,4.07
2022-10-17T20:13:19.625Z,4.43
2022-10-17T20:15:56.529Z,4.15
2022-10-17T20:18:23.129Z,3.80
2022-10-17T20:20:49.651Z,3.47
2022-10-17T20:23:16.674Z,4.78
2022-10-17T20:25:43.767Z,3.58
2022-10-17T20:28:10.335Z,4.15
2022-10-17T20:30:37.079Z,4.57
2022-10-17T20:33:03.614Z,3.67
2022-10-17T20:35:30.114Z,3.60
2022-10-17T20:37:57.134Z,4.88
2022-10-17T20:40:34.549Z,4.22
2022-10-17T20:43:02.563Z,4.20
2022-10-17T20:45:43.718Z,3.90
2022-10-17T20:48:16.389Z,4.40
2022-10-17T20:50:43.841Z,4.53
2022-10-17T20:53:35.569Z,4.65
2022-10-17T20:56:06.540Z,5.20
2022-10-17T20:58:33.057Z,4.38
2022-10-17T21:01:05.269Z,5.05
2022-10-17T21:03:35.175Z,4.70
2022-10-17T21:06:01.760Z,5.30
2022-10-17T21:08:28.266Z,5.50
2022-10-17T21:10:54.914Z,5.93
2022-10-17T21:13:21.434Z,5.35
2022-10-17T21:15:48.035Z,5.13
2022-10-17T21:18:14.571Z,4.60
2022-10-17T21:20:41.148Z,4.93
2022-10-17T21:23:07.765Z,5.07
2022-10-17T21:25:34.270Z,4.55
2022-10-17T21:28:00.750Z,5.00
2022-10-17T21:30:27.403Z,4.80
2022-10-17T21:32:55.247Z,4.72
2022-10-17T21:35:21.997Z,4.50
2022-10-17T21:37:48.567Z,4.82
2022-10-17T21:40:15.133Z,4.90
2022-10-17T21:42:41.666Z,4.57
2022-10-17T21:45:15.278Z,5.28
2022-10-17T21:47:54.925Z,4.88
2022-10-17T21:50:29.650Z,4.55
2022-10-17T21:52:58.224Z,4.97
2022-10-17T21:55:24.819Z,5.50
2022-10-17T21:57:51.837Z,5.43
2022-10-17T22:00:18.422Z,5.30
2022-10-17T22:02:44.981Z,4.78
2022-10-17T22:05:11.604Z,5.63
2022-10-17T22:07:38.108Z,4.93
2022-10-17T22:10:05.039Z,5.50
2022-10-17T22:12:31.769Z,4.38
2022-10-17T22:14:58.547Z,5.55
2022-10-17T22:17:25.053Z,5.50
2022-10-17T22:19:51.660Z,6.05
2022-10-17T22:22:18.142Z,5.68
2022-10-17T22:24:44.645Z,5.55
2022-10-17T22:27:11.201Z,6.45
2022-10-17T22:29:39.588Z,5.63
2022-10-17T22:32:06.134Z,5.47
2022-10-17T22:34:32.785Z,6.57
2022-10-17T22:36:59.304Z,7.43
2022-10-17T22:39:25.831Z,8.13
2022-10-17T22:41:52.318Z,8.20
2022-10-17T22:44:18.813Z,7.32
2022-10-17T22:46:45.386Z,7.70
2022-10-17T22:49:11.965Z,7.93
2022-10-17T22:51:38.527Z,8.07
2022-10-17T22:54:05.121Z,7.50
2022-10-17T22:56:31.692Z,6.28
2022-10-17T22:58:58.215Z,7.10
2022-10-17T23:01:25.792Z,8.65
2022-10-17T23:03:52.886Z,7.68
2022-10-17T23:06:20.345Z,7.45
2022-10-17T23:08:47.189Z,6.57
2022-10-17T23:11:14.113Z,7.55
2022-10-17T23:13:41.041Z,6.90
2022-10-17T23:16:07.903Z,6.57
2022-10-17T23:18:34.499Z,7.85
2022-10-17T23:21:01.076Z,7.82
2022-10-17T23:23:27.660Z,7.97
2022-10-17T23:25:54.199Z,5.40
2022-10-17T23:28:20.746Z,5.70
2022-10-17T23:30:47.553Z,6.13
2022-10-17T23:33:14.551Z,6.43
2022-10-17T23:35:41.483Z,5.82
2022-10-17T23:38:08.532Z,5.55
2022-10-17T23:40:35.377Z,5.72
2022-10-17T23:43:03.163Z,6.82
2022-10-17T23:45:33.398Z,7.85
2022-10-17T23:48:02.829Z,6.32
2022-10-17T23:50:29.372Z,8.45
2022-10-17T23:52:55.910Z,7.30
2022-10-17T23:55:22.442Z,7.43
2022-10-17T23:57:48.981Z,7.75
